createdAt,value
2023-04-12T00:00:17.837Z,1.90
2023-04-12T00:02:44.908Z,1.80
2023-04-12T00:05:12.043Z,1.70
2023-04-12T00:07:39.243Z,1.70
2023-04-12T00:10:08.153Z,1.60
2023-04-12T00:12:35.074Z,1.50
2023-04-12T00:15:01.955Z,1.50
2023-04-12T00:17:28.839Z,1.50
2023-04-12T00:19:55.845Z,1.50
2023-04-12T00:22:22.821Z,1.50
2023-04-12T00:24:49.659Z,1.50
2023-04-12T00:27:16.480Z,1.50
2023-04-12T00:29:43.355Z,1.40
2023-04-12T00:32:10.182Z,1.40
2023-04-12T00:34:37.009Z,1.30
2023-04-12T00:37:03.886Z,1.40
2023-04-12T00:39:30.698Z,1.30
2023-04-12T00:41:57.617Z,1.20
2023-04-12T00:44:24.733Z,1.10
2023-04-12T00:46:51.903Z,1.10
2023-04-12T00:49:18.714Z,1.00
2023-04-12T00:51:45.839Z,1.00
2023-04-12T00:54:14.410Z,1.00
2023-04-12T00:56:41.417Z,1.10
2023-04-12T00:59:08.574Z,1.10
2023-04-12T01:01:35.522Z,1.10
2023-04-12T01:04:04.565Z,1.20
2023-04-12T01:06:41.792Z,1.20
2023-04-12T01:09:35.905Z,1.30
2023-04-12T01:12:32.390Z,1.30
2023-04-12T01:15:12.513Z,1.20
2023-04-12T01:17:58.297Z,1.20
2023-04-12T01:20:31.761Z,1.20
2023-04-12T01:23:23.306Z,1.20
2023-04-12T01:26:00.265Z,1.20
2023-04-12T01:28:33.825Z,1.20
2023-04-12T01:31:06.626Z,1.20
2023-04-12T01:33:36.752Z,1.10
2023-04-12T01:36:11.507Z,1.10
2023-04-12T01:38:43.584Z,1.10
2023-04-12T01:41:10.838Z,1.10
2023-04-12T01:43:45.586Z,1.00
2023-04-12T01:46:18.917Z,1.00
2023-04-12T01:48:52.781Z,1.00
2023-04-12T01:51:42.617Z,1.00
2023-04-12T01:54:13.959Z,1.00
2023-04-12T01:56:46.291Z,0.90
2023-04-12T01:59:16.031Z,0.90
2023-04-12T02:01:44.391Z,0.90
2023-04-12T02:04:12.619Z,0.90
2023-04-12T02:06:40.374Z,0.90
2023-04-12T02:09:07.244Z,0.90
2023-04-12T02:11:34.789Z,0.90
2023-04-12T02:14:01.651Z,0.90
2023-04-12T02:16:32.397Z,0.90
2023-04-12T02:18:59.418Z,0.90
2023-04-12T02:21:27.785Z,0.90
2023-04-12T02:23:55.034Z,0.80
2023-04-12T02:26:23.679Z,0.80
2023-04-12T02:28:50.763Z,0.60
2023-04-12T02:31:17.712Z,0.50
2023-04-12T02:33:45.786Z,0.40
2023-04-12T02:36:12.893Z,0.40
2023-04-12T02:38:39.811Z,0.30
2023-04-12T02:41:07.015Z,0.20
2023-04-12T02:43:33.971Z,0.10
2023-04-12T02:46:01.076Z,0.00
2023-04-12T02:48:27.907Z,0.00
2023-04-12T02:50:54.692Z,0.00
2023-04-12T02:53:21.732Z,0.00
2023-04-12T02:55:48.566Z,-0.10
2023-04-12T02:58:15.456Z,-0.20
2023-04-12T03:00:43.703Z,-0.20
2023-04-12T03:03:10.731Z,-0.30
2023-04-12T03:05:38.012Z,-0.30
2023-04-12T03:08:04.985Z,-0.30
2023-04-12T03:10:31.817Z,-0.40
2023-04-12T03:12:58.597Z,-0.40
2023-04-12T03:15:25.621Z,-0.40
2023-04-12T03:17:52.779Z,-0.40
2023-04-12T03:20:20.489Z,-0.40
2023-04-12T03:22:47.304Z,-0.40
2023-04-12T03:25:14.171Z,-0.40
2023-04-12T03:27:41.037Z,-0.50
2023-04-12T03:30:08.846Z,-0.50
2023-04-12T03:32:35.715Z,-0.50
2023-04-12T03:35:03.388Z,-0.50
2023-04-12T03:37:30.429Z,-0.50
2023-04-12T03:39:57.191Z,-0.40
2023-04-12T03:42:33.026Z,-0.40
2023-04-12T03:45:01.119Z,-0.40
2023-04-12T03:47:28.077Z,-0.50
2023-04-12T03:50:12.356Z,-0.50
2023-04-12T03:52:39.673Z,-0.50
2023-04-12T03:55:07.606Z,-0.50
2023-04-12T03:57:35.212Z,-0.50
2023-04-12T04:00:02.591Z,-0.50
2023-04-12T04:02:30.002Z,-0.40
2023-04-12T04:04:57.236Z,-0.40
2023-04-12T04:07:24.298Z,-0.40
2023-04-12T04:09:51.065Z,-0.30
2023-04-12T04:12:17.833Z,-0.40
2023-04-12T04:14:44.856Z,-0.40
2023-04-12T04:17:11.689Z,-0.30
2023-04-12T04:19:39.056Z,-0.30
2023-04-12T04:22:05.843Z,-0.40
2023-04-12T04:24:34.204Z,-0.30
2023-04-12T04:27:01.211Z,-0.30
2023-04-12T04:29:29.152Z,-0.30
2023-04-12T04:31:57.437Z,-0.30
2023-04-12T04:34:25.550Z,-0.40
2023-04-12T04:36:52.812Z,-0.30
2023-04-12T04:39:19.584Z,-0.30
2023-04-12T04:41:46.540Z,-0.30
2023-04-12T04:44:13.413Z,-0.30
2023-04-12T04:46:40.221Z,-0.30
2023-04-12T04:49:07.179Z,-0.30
2023-04-12T04:51:33.990Z,-0.20
2023-04-12T04:54:02.137Z,-0.20
2023-04-12T04:56:29.173Z,-0.10
2023-04-12T04:58:57.222Z,-0.10
2023-04-12T05:01:28.351Z,0.00
2023-04-12T05:03:56.168Z,0.00
2023-04-12T05:06:23.644Z,0.10
2023-04-12T05:08:52.250Z,0.10
2023-04-12T05:11:19.767Z,0.20
2023-04-12T05:13:46.713Z,0.20
2023-04-12T05:16:13.788Z,0.30
2023-04-12T05:18:40.807Z,0.40
2023-04-12T05:21:07.789Z,0.50
2023-04-12T05:23:42.397Z,0.60
2023-04-12T05:26:09.191Z,0.70
2023-04-12T05:28:36.244Z,0.90
2023-04-12T05:31:03.092Z,0.90
2023-04-12T05:33:31.581Z,1.00
2023-04-12T05:35:59.804Z,1.10
2023-04-12T05:38:27.086Z,1.20
2023-04-12T05:40:59.311Z,1.30
2023-04-12T05:43:26.045Z,1.30
2023-04-12T05:45:53.085Z,1.40
2023-04-12T05:48:21.175Z,1.50
2023-04-12T05:50:52.574Z,1.60
2023-04-12T05:53:19.435Z,1.80
2023-04-12T05:55:46.296Z,2.00
2023-04-12T05:58:13.646Z,2.10
2023-04-12T06:00:44.035Z,2.30
2023-04-12T06:03:11.558Z,2.50
2023-04-12T06:05:39.143Z,2.60
2023-04-12T06:08:06.424Z,2.80
2023-04-12T06:10:33.227Z,2.90
2023-04-12T06:13:00.179Z,3.10
2023-04-12T06:15:26.931Z,3.20
2023-04-12T06:17:53.841Z,3.30
2023-04-12T06:20:20.897Z,3.40
2023-04-12T06:22:47.686Z,3.60
2023-04-12T06:25:16.469Z,3.80
2023-04-12T06:27:43.833Z,4.10
2023-04-12T06:30:11.441Z,4.50
2023-04-12T06:32:38.676Z,4.90
2023-04-12T06:35:06.079Z,5.30
2023-04-12T06:37:32.839Z,5.90
2023-04-12T06:39:59.801Z,6.30
2023-04-12T06:42:26.653Z,6.80
2023-04-12T06:44:53.416Z,7.30
2023-04-12T06:47:22.949Z,7.90
2023-04-12T06:49:53.236Z,8.40
2023-04-12T06:52:23.911Z,8.90
2023-04-12T06:54:50.648Z,9.50
2023-04-12T06:57:17.750Z,9.90
2023-04-12T06:59:44.835Z,10.30
2023-04-12T07:02:12.129Z,10.50
2023-04-12T07:04:38.939Z,10.90
2023-04-12T07:07:07.064Z,11.30
2023-04-12T07:09:33.921Z,11.70
2023-04-12T07:12:02.380Z,12.10
2023-04-12T07:14:29.253Z,12.60
2023-04-12T07:16:56.033Z,13.00
2023-04-12T07:19:22.834Z,13.40
2023-04-12T07:21:52.446Z,14.00
2023-04-12T07:24:19.353Z,14.30
2023-04-12T07:26:46.527Z,14.70
2023-04-12T07:29:14.736Z,15.20
2023-04-12T07:31:41.654Z,15.40
2023-04-12T07:34:08.811Z,15.60
2023-04-12T07:36:35.710Z,15.70
2023-04-12T07:39:02.545Z,16.10
2023-04-12T07:41:29.338Z,16.00
2023-04-12T07:43:56.579Z,16.10
2023-04-12T07:46:23.404Z,16.40
2023-04-12T07:48:51.625Z,16.90
2023-04-12T07:51:18.512Z,17.30
2023-04-12T07:53:48.276Z,17.80
2023-04-12T07:56:15.556Z,17.90
2023-04-12T07:58:42.402Z,18.10
2023-04-12T08:01:11.912Z,18.40
2023-04-12T08:03:38.967Z,18.40
2023-04-12T08:06:06.712Z,18.50
2023-04-12T08:08:33.934Z,18.70
2023-04-12T08:11:02.919Z,18.40
2023-04-12T08:13:29.648Z,18.60
2023-04-12T08:15:56.516Z,18.80
2023-04-12T08:18:23.293Z,19.10
2023-04-12T08:20:50.126Z,19.20
2023-04-12T08:23:17.350Z,19.00
2023-04-12T08:25:44.152Z,19.20
2023-04-12T08:28:11.198Z,19.30
2023-04-12T08:30:38.359Z,18.90
2023-04-12T08:33:05.653Z,19.30
2023-04-12T08:35:32.900Z,19.50
2023-04-12T08:38:07.650Z,19.90
2023-04-12T08:40:35.420Z,19.80
2023-04-12T08:43:05.803Z,19.80
2023-04-12T08:45:34.216Z,20.10
2023-04-12T08:48:03.835Z,20.10
2023-04-12T08:50:31.408Z,20.30
2023-04-12T08:53:01.081Z,20.70
2023-04-12T08:55:28.907Z,21.20
2023-04-12T08:57:56.873Z,20.70
2023-04-12T09:00:24.184Z,20.40
2023-04-12T09:02:53.344Z,20.70
2023-04-12T09:05:20.497Z,21.20
2023-04-12T09:07:47.359Z,21.50
2023-04-12T09:10:32.696Z,21.50
2023-04-12T09:13:00.567Z,21.90
2023-04-12T09:15:28.715Z,21.50
2023-04-12T09:18:10.369Z,21.50
2023-04-12T09:20:38.271Z,21.30
2023-04-12T09:23:22.452Z,21.30
2023-04-12T09:25:52.018Z,21.40
2023-04-12T09:28:27.113Z,21.80
2023-04-12T09:30:55.757Z,22.00
2023-04-12T09:33:34.157Z,22.20
2023-04-12T09:36:02.915Z,22.20
2023-04-12T09:38:31.166Z,22.40
2023-04-12T09:40:58.197Z,23.10
2023-04-12T09:43:39.068Z,23.80
2023-04-12T09:46:14.766Z,23.80
2023-04-12T09:48:48.358Z,23.90
2023-04-12T09:51:33.160Z,24.10
2023-04-12T09:54:05.610Z,24.60
2023-04-12T09:56:36.824Z,23.90
2023-04-12T09:59:07.539Z,23.90
2023-04-12T10:01:39.119Z,24.20
2023-04-12T10:04:07.760Z,24.50
2023-04-12T10:06:36.218Z,24.30
2023-04-12T10:09:06.817Z,24.10
2023-04-12T10:11:34.226Z,24.30
2023-04-12T10:14:03.381Z,24.90
2023-04-12T10:16:31.120Z,25.00
2023-04-12T10:19:04.432Z,25.70
2023-04-12T10:21:32.000Z,25.70
2023-04-12T10:23:59.708Z,25.20
2023-04-12T10:26:27.654Z,24.90
2023-04-12T10:29:23.975Z,24.60
2023-04-12T10:31:51.723Z,24.60
2023-04-12T10:34:23.291Z,24.40
2023-04-12T10:37:04.296Z,24.50
2023-04-12T10:39:43.064Z,24.60
2023-04-12T10:42:25.139Z,24.50
2023-04-12T10:44:58.759Z,23.00
2023-04-12T10:47:53.844Z,22.40
2023-04-12T10:50:27.421Z,22.00
2023-04-12T10:53:25.278Z,21.50
2023-04-12T10:55:52.321Z,20.70
2023-04-12T10:58:48.506Z,20.00
2023-04-12T11:01:18.458Z,19.20
2023-04-12T11:04:07.612Z,19.10
2023-04-12T11:07:11.664Z,19.50
2023-04-12T11:09:48.680Z,19.00
2023-04-12T11:15:41.456Z,18.80
2023-04-12T11:20:40.847Z,18.40
2023-04-12T11:23:10.637Z,17.90
2023-04-12T11:25:38.584Z,17.60
2023-04-12T11:28:17.190Z,17.60
2023-04-12T11:30:53.673Z,17.50
2023-04-12T11:33:36.761Z,17.60
2023-04-12T11:36:08.721Z,18.10
2023-04-12T11:38:37.772Z,18.90
2023-04-12T11:41:08.201Z,19.40
2023-04-12T11:43:38.624Z,20.30
2023-04-12T11:48:47.730Z,20.40
2023-04-12T11:51:31.634Z,20.20
2023-04-12T11:53:59.681Z,20.00
2023-04-12T11:56:27.297Z,19.90
2023-04-12T11:58:54.160Z,18.70
2023-04-12T12:01:22.189Z,18.10
2023-04-12T12:03:50.035Z,18.10
2023-04-12T12:06:18.010Z,18.10
2023-04-12T12:08:45.285Z,17.90
2023-04-12T12:11:12.634Z,17.80
2023-04-12T12:13:49.376Z,18.30
2023-04-12T12:16:17.501Z,18.30
2023-04-12T12:18:46.362Z,18.30
2023-04-12T12:21:14.537Z,18.10
2023-04-12T12:23:46.078Z,18.10
2023-04-12T12:26:24.600Z,18.10
2023-04-12T12:28:56.259Z,17.30
2023-04-12T12:31:26.635Z,17.00
2023-04-12T12:33:58.629Z,16.60
2023-04-12T12:36:33.126Z,16.50
2023-04-12T12:39:10.523Z,16.40
2023-04-12T12:41:37.997Z,16.10
2023-04-12T12:44:05.075Z,16.00
2023-04-12T12:46:50.678Z,15.70
2023-04-12T12:49:19.134Z,15.50
2023-04-12T12:51:46.739Z,15.20
2023-04-12T12:54:25.054Z,15.00
2023-04-12T12:57:03.433Z,14.90
2023-04-12T12:59:30.575Z,14.70
2023-04-12T13:01:57.429Z,14.50
2023-04-12T13:04:24.742Z,14.50
2023-04-12T13:06:52.293Z,14.60
2023-04-12T13:09:19.032Z,14.70
2023-04-12T13:11:46.003Z,14.70
2023-04-12T13:14:12.762Z,14.70
2023-04-12T13:16:40.960Z,14.80
2023-04-12T13:19:08.278Z,15.10
2023-04-12T13:21:35.141Z,15.20
2023-04-12T13:24:02.302Z,15.20
2023-04-12T13:26:29.078Z,15.10
2023-04-12T13:28:56.023Z,15.00
2023-04-12T13:31:23.230Z,14.90
2023-04-12T13:33:49.967Z,14.70
2023-04-12T13:36:16.669Z,14.60
2023-04-12T13:38:43.780Z,14.30
2023-04-12T13:41:10.744Z,14.20
2023-04-12T13:43:37.510Z,14.00
2023-04-12T13:46:04.467Z,13.90
2023-04-12T13:48:33.917Z,13.80
2023-04-12T13:51:04.188Z,13.70
2023-04-12T13:53:31.276Z,13.70
2023-04-12T13:55:58.076Z,13.70
2023-04-12T13:58:25.806Z,13.60
2023-04-12T14:00:54.445Z,13.60
2023-04-12T14:03:22.331Z,13.50
2023-04-12T14:05:49.131Z,13.40
2023-04-12T14:08:29.380Z,13.30
2023-04-12T14:10:56.474Z,13.20
2023-04-12T14:13:24.104Z,13.10
2023-04-12T14:15:51.758Z,13.10
2023-04-12T14:18:19.882Z,13.20
2023-04-12T14:20:52.307Z,13.20
2023-04-12T14:23:19.420Z,13.20
2023-04-12T14:25:46.355Z,13.00
2023-04-12T14:28:16.811Z,12.90
2023-04-12T14:30:44.257Z,12.70
2023-04-12T14:33:11.549Z,12.60
2023-04-12T14:35:38.471Z,12.50
2023-04-12T14:38:05.971Z,12.40
2023-04-12T14:40:32.756Z,12.30
2023-04-12T14:42:59.512Z,12.30
2023-04-12T14:45:27.616Z,12.20
2023-04-12T14:47:54.778Z,12.10
2023-04-12T14:50:22.021Z,12.10
2023-04-12T14:52:49.418Z,12.10
2023-04-12T14:55:19.400Z,12.10
2023-04-12T14:57:46.187Z,12.00
2023-04-12T15:03:12.023Z,11.60
2023-04-12T15:05:40.301Z,11.40
2023-04-12T15:08:07.163Z,11.30
2023-04-12T15:10:36.458Z,11.10
2023-04-12T15:16:42.484Z,10.70
2023-04-12T15:19:16.719Z,10.60
2023-04-12T15:21:46.714Z,10.50
2023-04-12T15:24:13.547Z,10.50
2023-04-12T15:26:40.387Z,10.50
2023-04-12T15:29:29.306Z,10.50
2023-04-12T15:31:59.066Z,10.50
2023-04-12T15:34:28.350Z,10.60
2023-04-12T15:36:55.161Z,10.60
2023-04-12T15:39:22.293Z,10.60
2023-04-12T15:41:49.172Z,10.60
2023-04-12T15:44:16.137Z,10.70
2023-04-12T15:46:43.188Z,10.70
2023-04-12T15:49:11.268Z,10.70
2023-04-12T15:51:38.516Z,10.70
2023-04-12T15:54:06.249Z,10.70
2023-04-12T15:56:34.484Z,10.80
2023-04-12T15:59:01.820Z,10.70
2023-04-12T16:01:28.824Z,10.60
2023-04-12T16:03:55.949Z,10.50
2023-04-12T16:06:24.352Z,10.40
2023-04-12T16:08:54.500Z,10.40
2023-04-12T16:11:23.906Z,10.20
2023-04-12T16:13:52.546Z,10.20
2023-04-12T16:16:22.520Z,10.10
2023-04-12T16:18:49.827Z,10.00
2023-04-12T16:21:20.374Z,9.90
2023-04-12T16:23:48.864Z,9.80
2023-04-12T16:26:21.851Z,9.80
2023-04-12T16:28:50.341Z,9.70
2023-04-12T16:31:19.590Z,9.70
2023-04-12T16:33:48.927Z,9.60
2023-04-12T16:36:16.532Z,9.60
2023-04-12T16:38:46.762Z,9.60
2023-04-12T16:41:13.745Z,9.60
2023-04-12T16:43:42.068Z,9.60
2023-04-12T16:46:10.952Z,9.60
2023-04-12T16:52:09.841Z,9.60
2023-04-12T16:54:36.617Z,9.60
2023-04-12T16:57:04.077Z,9.50
2023-04-12T16:59:34.421Z,9.50
2023-04-12T17:02:01.436Z,9.50
2023-04-12T17:04:28.415Z,9.50
2023-04-12T17:06:55.346Z,9.50
2023-04-12T17:09:22.159Z,9.40
2023-04-12T17:11:48.927Z,9.40
2023-04-12T17:14:15.699Z,9.40
2023-04-12T17:16:42.545Z,9.40
2023-04-12T17:19:10.442Z,9.30
2023-04-12T17:21:44.685Z,9.30
2023-04-12T17:24:12.085Z,9.30
2023-04-12T17:26:40.294Z,9.30
2023-04-12T17:29:07.358Z,9.20
2023-04-12T17:31:35.873Z,9.20
2023-04-12T17:34:04.526Z,9.10
2023-04-12T17:36:31.656Z,9.10
2023-04-12T17:39:00.367Z,9.10
2023-04-12T17:41:28.194Z,9.00
2023-04-12T17:43:55.459Z,9.00
2023-04-12T17:46:24.156Z,8.90
2023-04-12T17:48:52.148Z,8.90
2023-04-12T17:51:19.069Z,8.90
2023-04-12T17:53:46.133Z,8.90
2023-04-12T17:56:12.900Z,8.90
2023-04-12T17:58:39.648Z,8.80
2023-04-12T18:01:06.661Z,8.80
2023-04-12T18:03:34.578Z,8.70
2023-04-12T18:06:04.050Z,8.70
2023-04-12T18:08:30.818Z,8.70
2023-04-12T18:10:57.949Z,8.70
2023-04-12T18:13:24.849Z,8.60
2023-04-12T18:15:51.922Z,8.70
2023-04-12T18:18:18.745Z,8.60
2023-04-12T18:20:45.677Z,8.60
2023-04-12T18:23:12.458Z,8.60
2023-04-12T18:25:39.310Z,8.60
2023-04-12T18:28:07.949Z,8.60
2023-04-12T18:30:35.361Z,8.50
2023-04-12T18:33:03.914Z,8.50
2023-04-12T18:35:31.642Z,8.50
2023-04-12T18:37:58.485Z,8.50
2023-04-12T18:40:25.344Z,8.50
2023-04-12T18:42:52.954Z,8.50
2023-04-12T18:45:20.065Z,8.50
2023-04-12T18:47:46.936Z,8.50
2023-04-12T18:50:14.611Z,8.40
2023-04-12T18:52:50.984Z,8.40
2023-04-12T18:55:17.973Z,8.40
2023-04-12T18:57:45.618Z,8.40
2023-04-12T19:00:17.074Z,8.40
2023-04-12T19:02:43.948Z,8.40
2023-04-12T19:05:11.745Z,8.40
2023-04-12T19:07:38.594Z,8.40
2023-04-12T19:10:05.797Z,8.40
2023-04-12T19:12:33.155Z,8.40
2023-04-12T19:15:01.482Z,8.40
2023-04-12T19:17:29.232Z,8.40
2023-04-12T19:19:56.229Z,8.40
2023-04-12T19:22:26.425Z,8.40
2023-04-12T19:24:53.769Z,8.40
2023-04-12T19:27:22.919Z,8.40
2023-04-12T19:29:53.555Z,8.40
2023-04-12T19:32:20.354Z,8.40
2023-04-12T19:37:54.668Z,8.40
2023-04-12T19:40:21.574Z,8.40
2023-04-12T19:42:48.384Z,8.40
2023-04-12T19:51:44.963Z,8.50
2023-04-12T19:54:28.948Z,8.50
2023-04-12T19:57:01.305Z,8.50
2023-04-12T19:59:49.267Z,8.50
2023-04-12T20:02:19.416Z,8.50
2023-04-12T20:08:15.260Z,8.50
2023-04-12T20:10:59.408Z,8.50
2023-04-12T20:13:39.000Z,8.60
2023-04-12T20:26:29.151Z,8.60
2023-04-12T20:29:18.383Z,8.60
2023-04-12T20:32:01.507Z,8.70
2023-04-12T20:35:11.482Z,8.70
2023-04-12T20:38:19.136Z,8.70
2023-04-12T20:40:59.020Z,8.70
2023-04-12T20:49:45.480Z,8.80
2023-04-12T20:58:57.432Z,8.70
2023-04-12T21:01:31.170Z,8.70
2023-04-12T21:04:13.740Z,8.80
2023-04-12T21:09:30.857Z,8.70
2023-04-12T21:11:57.858Z,8.70
2023-04-12T21:14:25.099Z,8.70
2023-04-12T21:16:52.493Z,8.60
2023-04-12T21:19:19.432Z,8.60
2023-04-12T21:21:46.335Z,8.60
2023-04-12T21:24:13.656Z,8.50
2023-04-12T21:26:42.291Z,8.50
2023-04-12T21:29:09.283Z,8.40
2023-04-12T21:31:38.975Z,8.40
2023-04-12T21:34:07.179Z,8.40
2023-04-12T21:36:34.159Z,8.30
2023-04-12T21:39:01.248Z,8.30
2023-04-12T21:41:29.663Z,8.30
2023-04-12T21:43:56.693Z,8.30
2023-04-12T21:46:27.595Z,8.20
2023-04-12T21:48:54.668Z,8.20
2023-04-12T21:51:23.399Z,8.10
2023-04-12T21:53:50.185Z,8.10
2023-04-12T21:56:16.965Z,8.10
2023-04-12T21:58:43.762Z,8.10
2023-04-12T22:01:10.572Z,8.10
2023-04-12T22:03:37.515Z,8.10
2023-04-12T22:06:05.451Z,8.10
2023-04-12T22:08:32.978Z,8.10
2023-04-12T22:11:00.396Z,8.10
2023-04-12T22:13:27.570Z,8.10
2023-04-12T22:15:54.353Z,8.10
2023-04-12T22:18:22.024Z,8.10
2023-04-12T22:20:48.828Z,8.10
2023-04-12T22:23:18.118Z,8.10
2023-04-12T22:25:45.666Z,8.10
2023-04-12T22:28:14.530Z,8.10
2023-04-12T22:30:41.321Z,8.10
2023-04-12T22:33:08.512Z,8.00
2023-04-12T22:35:36.445Z,8.00
2023-04-12T22:38:04.108Z,8.00
2023-04-12T22:40:31.071Z,8.00
2023-04-12T22:42:58.244Z,8.00
2023-04-12T22:45:25.166Z,8.00
2023-04-12T22:47:52.870Z,8.00
2023-04-12T22:50:20.388Z,8.00
2023-04-12T22:52:49.749Z,8.00
2023-04-12T22:55:18.098Z,8.00
2023-04-12T22:57:44.994Z,8.00
2023-04-12T23:00:15.691Z,7.90
2023-04-12T23:02:43.943Z,7.90
2023-04-12T23:05:12.042Z,7.90
2023-04-12T23:07:41.209Z,7.90
2023-04-12T23:10:08.918Z,7.90
2023-04-12T23:12:37.140Z,7.90
2023-04-12T23:15:04.294Z,7.90
2023-04-12T23:17:31.373Z,7.90
2023-04-12T23:20:01.623Z,7.90
2023-04-12T23:22:55.308Z,7.90
2023-04-12T23:25:41.362Z,7.90
2023-04-12T23:28:13.536Z,7.90
2023-04-12T23:30:48.883Z,7.90
2023-04-12T23:33:20.325Z,7.90
2023-04-12T23:35:53.074Z,7.90
2023-04-12T23:38:24.460Z,7.90
2023-04-12T23:40:53.899Z,7.80
2023-04-12T23:43:22.013Z,7.80
2023-04-12T23:45:49.331Z,7.80
2023-04-12T23:48:19.290Z,7.80
2023-04-12T23:50:46.552Z,7.80
2023-04-12T23:53:13.797Z,7.80
2023-04-12T23:55:42.710Z,7.80
2023-04-12T23:58:09.850Z,7.80
